sensor_id;sensor_type;location;lat;lon;timestamp;temperature;humidity
55135;DHT22;41031;44.750;11.308;2023-04-01T00:00:02;12.50;91.50
55135;DHT22;41031;44.750;11.308;2023-04-01T00:02:37;12.50;91.60
55135;DHT22;41031;44.750;11.308;2023-04-01T00:05:05;12.50;91.60
55135;DHT22;41031;44.750;11.308;2023-04-01T00:07:32;12.50;91.60
55135;DHT22;41031;44.750;11.308;2023-04-01T00:09:59;12.50;91.50
55135;DHT22;41031;44.750;11.308;2023-04-01T00:12:26;12.40;91.40
55135;DHT22;41031;44.750;11.308;2023-04-01T00:14:53;12.40;91.60
55135;DHT22;41031;44.750;11.308;2023-04-01T00:17:20;12.30;91.70
55135;DHT22;41031;44.750;11.308;2023-04-01T00:19:48;12.30;91.80
55135;DHT22;41031;44.750;11.308;2023-04-01T00:22:15;12.20;91.80
55135;DHT22;41031;44.750;11.308;2023-04-01T00:24:42;12.20;91.90
55135;DHT22;41031;44.750;11.308;2023-04-01T00:27:10;12.20;92.20
55135;DHT22;41031;44.750;11.308;2023-04-01T00:29:37;12.20;92.30
55135;DHT22;41031;44.750;11.308;2023-04-01T00:32:04;12.10;92.20
55135;DHT22;41031;44.750;11.308;2023-04-01T00:34:32;12.10;92.30
55135;DHT22;41031;44.750;11.308;2023-04-01T00:36:58;12.10;92.50
55135;DHT22;41031;44.750;11.308;2023-04-01T00:39:28;12.10;92.50
55135;DHT22;41031;44.750;11.308;2023-04-01T00:41:55;12.10;92.50
55135;DHT22;41031;44.750;11.308;2023-04-01T00:44:25;12.10;92.70
55135;DHT22;41031;44.750;11.308;2023-04-01T00:46:52;12.10;92.60
55135;DHT22;41031;44.750;11.308;2023-04-01T00:49:25;12.10;92.50
55135;DHT22;41031;44.750;11.308;2023-04-01T00:51:54;12.10;92.30
55135;DHT22;41031;44.750;11.308;2023-04-01T00:54:24;12.00;92.10
55135;DHT22;41031;44.750;11.308;2023-04-01T00:56:55;12.00;91.90
55135;DHT22;41031;44.750;11.308;2023-04-01T00:59:31;11.90;91.90
55135;DHT22;41031;44.750;11.308;2023-04-01T01:02:02;11.90;91.90
55135;DHT22;41031;44.750;11.308;2023-04-01T01:04:32;11.90;91.90
55135;DHT22;41031;44.750;11.308;2023-04-01T01:07:13;11.90;92.00
55135;DHT22;41031;44.750;11.308;2023-04-01T01:09:48;11.80;92.00
55135;DHT22;41031;44.750;11.308;2023-04-01T01:12:29;11.80;92.00
55135;DHT22;41031;44.750;11.308;2023-04-01T01:15:22;11.80;92.00
55135;DHT22;41031;44.750;11.308;2023-04-01T01:35:33;11.60;92.50
55135;DHT22;41031;44.750;11.308;2023-04-01T01:38:11;11.60;92.50
55135;DHT22;41031;44.750;11.308;2023-04-01T01:40:45;11.50;92.50
55135;DHT22;41031;44.750;11.308;2023-04-01T01:43:18;11.50;92.40
55135;DHT22;41031;44.750;11.308;2023-04-01T01:45:48;11.50;92.40
55135;DHT22;41031;44.750;11.308;2023-04-01T01:48:19;11.40;92.50
55135;DHT22;41031;44.750;11.308;2023-04-01T01:50:48;11.40;92.60
55135;DHT22;41031;44.750;11.308;2023-04-01T01:53:15;11.40;92.70
55135;DHT22;41031;44.750;11.308;2023-04-01T01:55:45;11.40;92.70
55135;DHT22;41031;44.750;11.308;2023-04-01T01:58:32;11.40;92.70
55135;DHT22;41031;44.750;11.308;2023-04-01T02:01:05;11.40;92.60
55135;DHT22;41031;44.750;11.308;2023-04-01T02:03:37;11.40;92.60
55135;DHT22;41031;44.750;11.308;2023-04-01T02:06:09;11.40;92.70
55135;DHT22;41031;44.750;11.308;2023-04-01T02:08:54;11.40;92.70
55135;DHT22;41031;44.750;11.308;2023-04-01T02:14:10;11.40;92.60
55135;DHT22;41031;44.750;11.308;2023-04-01T02:19:18;11.30;92.60
55135;DHT22;41031;44.750;11.308;2023-04-01T02:21:53;11.30;92.60
55135;DHT22;41031;44.750;11.308;2023-04-01T02:24:23;11.30;92.60
55135;DHT22;41031;44.750;11.308;2023-04-01T02:26:51;11.30;92.50
55135;DHT22;41031;44.750;11.308;2023-04-01T02:29:23;11.20;92.50
55135;DHT22;41031;44.750;11.308;2023-04-01T02:31:55;11.20;92.80
55135;DHT22;41031;44.750;11.308;2023-04-01T02:34:24;11.20;92.60
55135;DHT22;41031;44.750;11.308;2023-04-01T02:36:52;11.20;92.50
55135;DHT22;41031;44.750;11.308;2023-04-01T02:39:20;11.10;92.40
55135;DHT22;41031;44.750;11.308;2023-04-01T02:41:48;11.10;92.40
55135;DHT22;41031;44.750;11.308;2023-04-01T02:44:15;11.10;92.40
55135;DHT22;41031;44.750;11.308;2023-04-01T02:46:43;11.00;92.40
55135;DHT22;41031;44.750;11.308;2023-04-01T02:49:10;11.00;92.50
55135;DHT22;41031;44.750;11.308;2023-04-01T02:51:37;10.90;92.60
55135;DHT22;41031;44.750;11.308;2023-04-01T02:54:04;10.90;92.70
55135;DHT22;41031;44.750;11.308;2023-04-01T02:56:31;10.90;92.70
55135;DHT22;41031;44.750;11.308;2023-04-01T02:58:58;10.90;92.70
55135;DHT22;41031;44.750;11.308;2023-04-01T03:01:26;10.80;92.80
55135;DHT22;41031;44.750;11.308;2023-04-01T03:03:53;10.80;92.80
55135;DHT22;41031;44.750;11.308;2023-04-01T03:06:20;10.80;92.80
55135;DHT22;41031;44.750;11.308;2023-04-01T03:08:47;10.80;92.90
55135;DHT22;41031;44.750;11.308;2023-04-01T03:11:14;10.80;92.90
55135;DHT22;41031;44.750;11.308;2023-04-01T03:13:41;10.80;93.00
55135;DHT22;41031;44.750;11.308;2023-04-01T03:16:09;10.80;93.10
55135;DHT22;41031;44.750;11.308;2023-04-01T03:18:36;10.80;93.00
55135;DHT22;41031;44.750;11.308;2023-04-01T03:21:21;10.80;92.90
55135;DHT22;41031;44.750;11.308;2023-04-01T03:23:49;10.80;92.90
55135;DHT22;41031;44.750;11.308;2023-04-01T03:26:17;10.80;92.90
55135;DHT22;41031;44.750;11.308;2023-04-01T03:28:44;10.80;92.90
55135;DHT22;41031;44.750;11.308;2023-04-01T03:31:12;10.80;92.90
55135;DHT22;41031;44.750;11.308;2023-04-01T03:33:46;10.80;92.90
55135;DHT22;41031;44.750;11.308;2023-04-01T03:36:13;10.80;92.90
55135;DHT22;41031;44.750;11.308;2023-04-01T03:38:41;10.80;92.90
55135;DHT22;41031;44.750;11.308;2023-04-01T03:41:15;10.80;92.70
55135;DHT22;41031;44.750;11.308;2023-04-01T03:43:43;10.70;92.70
55135;DHT22;41031;44.750;11.308;2023-04-01T03:46:11;10.70;92.60
55135;DHT22;41031;44.750;11.308;2023-04-01T03:48:38;10.60;92.50
55135;DHT22;41031;44.750;11.308;2023-04-01T03:51:08;10.60;92.50
55135;DHT22;41031;44.750;11.308;2023-04-01T03:53:36;10.60;92.50
55135;DHT22;41031;44.750;11.308;2023-04-01T03:56:06;10.60;92.70
55135;DHT22;41031;44.750;11.308;2023-04-01T03:58:35;10.50;93.10
55135;DHT22;41031;44.750;11.308;2023-04-01T04:01:17;10.50;92.90
55135;DHT22;41031;44.750;11.308;2023-04-01T04:03:45;10.50;93.00
55135;DHT22;41031;44.750;11.308;2023-04-01T04:06:14;10.50;93.00
55135;DHT22;41031;44.750;11.308;2023-04-01T04:08:41;10.50;93.10
55135;DHT22;41031;44.750;11.308;2023-04-01T04:11:09;10.50;93.10
55135;DHT22;41031;44.750;11.308;2023-04-01T04:13:41;10.50;93.10
55135;DHT22;41031;44.750;11.308;2023-04-01T04:16:09;10.50;93.10
55135;DHT22;41031;44.750;11.308;2023-04-01T04:18:40;10.50;93.10
55135;DHT22;41031;44.750;11.308;2023-04-01T04:21:14;10.50;93.00
55135;DHT22;41031;44.750;11.308;2023-04-01T04:23:42;10.40;93.00
55135;DHT22;41031;44.750;11.308;2023-04-01T04:26:14;10.40;93.10
55135;DHT22;41031;44.750;11.308;2023-04-01T04:28:45;10.40;93.10
55135;DHT22;41031;44.750;11.308;2023-04-01T04:31:22;10.40;93.20
55135;DHT22;41031;44.750;11.308;2023-04-01T04:33:51;10.40;93.20
55135;DHT22;41031;44.750;11.308;2023-04-01T04:36:19;10.40;93.10
55135;DHT22;41031;44.750;11.308;2023-04-01T04:38:48;10.40;93.10
55135;DHT22;41031;44.750;11.308;2023-04-01T04:41:17;10.30;93.40
55135;DHT22;41031;44.750;11.308;2023-04-01T04:43:50;10.30;93.10
55135;DHT22;41031;44.750;11.308;2023-04-01T04:46:18;10.30;93.20
55135;DHT22;41031;44.750;11.308;2023-04-01T04:48:48;10.30;93.20
55135;DHT22;41031;44.750;11.308;2023-04-01T04:51:17;10.30;93.20
55135;DHT22;41031;44.750;11.308;2023-04-01T04:53:45;10.30;93.20
55135;DHT22;41031;44.750;11.308;2023-04-01T04:56:12;10.20;93.20
55135;DHT22;41031;44.750;11.308;2023-04-01T04:58:48;10.20;93.20
55135;DHT22;41031;44.750;11.308;2023-04-01T05:01:20;10.20;93.20
55135;DHT22;41031;44.750;11.308;2023-04-01T05:03:47;10.20;93.20
55135;DHT22;41031;44.750;11.308;2023-04-01T05:06:16;10.20;93.20
55135;DHT22;41031;44.750;11.308;2023-04-01T05:08:44;10.20;93.30
55135;DHT22;41031;44.750;11.308;2023-04-01T05:11:14;10.20;93.30
55135;DHT22;41031;44.750;11.308;2023-04-01T05:13:43;10.20;93.30
55135;DHT22;41031;44.750;11.308;2023-04-01T05:16:13;10.20;93.30
55135;DHT22;41031;44.750;11.308;2023-04-01T05:18:41;10.20;93.40
55135;DHT22;41031;44.750;11.308;2023-04-01T05:21:11;10.30;93.60
55135;DHT22;41031;44.750;11.308;2023-04-01T05:23:39;10.40;93.70
55135;DHT22;41031;44.750;11.308;2023-04-01T05:26:08;10.60;93.50
55135;DHT22;41031;44.750;11.308;2023-04-01T05:28:37;10.70;93.30
55135;DHT22;41031;44.750;11.308;2023-04-01T05:31:06;10.80;93.30
55135;DHT22;41031;44.750;11.308;2023-04-01T05:33:37;10.80;93.30
55135;DHT22;41031;44.750;11.308;2023-04-01T05:36:15;10.80;93.30
55135;DHT22;41031;44.750;11.308;2023-04-01T05:38:43;10.90;93.50
55135;DHT22;41031;44.750;11.308;2023-04-01T05:41:13;11.00;93.50
55135;DHT22;41031;44.750;11.308;2023-04-01T05:43:44;11.00;93.50
55135;DHT22;41031;44.750;11.308;2023-04-01T05:46:39;11.10;93.60
55135;DHT22;41031;44.750;11.308;2023-04-01T05:49:19;11.20;93.60
55135;DHT22;41031;44.750;11.308;2023-04-01T05:51:48;11.30;93.60
55135;DHT22;41031;44.750;11.308;2023-04-01T05:54:15;11.40;93.90
55135;DHT22;41031;44.750;11.308;2023-04-01T05:56:44;11.40;93.60
55135;DHT22;41031;44.750;11.308;2023-04-01T05:59:15;11.50;93.50
55135;DHT22;41031;44.750;11.308;2023-04-01T06:01:43;11.60;93.50
55135;DHT22;41031;44.750;11.308;2023-04-01T06:04:14;11.70;93.40
55135;DHT22;41031;44.750;11.308;2023-04-01T06:06:43;11.80;93.40
55135;DHT22;41031;44.750;11.308;2023-04-01T06:09:23;11.90;93.20
55135;DHT22;41031;44.750;11.308;2023-04-01T06:20:20;12.90;91.50
55135;DHT22;41031;44.750;11.308;2023-04-01T06:23:22;13.00;91.50
55135;DHT22;41031;44.750;11.308;2023-04-01T06:26:07;13.10;91.50
55135;DHT22;41031;44.750;11.308;2023-04-01T06:42:30;13.50;91.80
55135;DHT22;41031;44.750;11.308;2023-04-01T06:48:17;13.60;91.40
55135;DHT22;41031;44.750;11.308;2023-04-01T06:51:34;13.70;91.40
55135;DHT22;41031;44.750;11.308;2023-04-01T06:54:35;13.80;91.40
55135;DHT22;41031;44.750;11.308;2023-04-01T06:59:54;14.10;91.20
55135;DHT22;41031;44.750;11.308;2023-04-01T07:04:55;14.30;90.80
55135;DHT22;41031;44.750;11.308;2023-04-01T07:07:37;14.40;90.50
55135;DHT22;41031;44.750;11.308;2023-04-01T07:10:31;14.50;90.30
55135;DHT22;41031;44.750;11.308;2023-04-01T07:16:27;14.70;90.10
55135;DHT22;41031;44.750;11.308;2023-04-01T07:25:11;15.00;89.30
55135;DHT22;41031;44.750;11.308;2023-04-01T07:27:38;15.10;89.20
55135;DHT22;41031;44.750;11.308;2023-04-01T07:30:20;15.20;88.80
55135;DHT22;41031;44.750;11.308;2023-04-01T07:33:04;15.30;88.40
55135;DHT22;41031;44.750;11.308;2023-04-01T07:38:33;15.50;86.80
55135;DHT22;41031;44.750;11.308;2023-04-01T07:50:00;15.90;82.50
55135;DHT22;41031;44.750;11.308;2023-04-01T08:01:03;16.50;78.90
55135;DHT22;41031;44.750;11.308;2023-04-01T08:06:33;16.80;77.30
55135;DHT22;41031;44.750;11.308;2023-04-01T08:16:06;17.10;76.30
55135;DHT22;41031;44.750;11.308;2023-04-01T08:21:58;17.40;69.10
55135;DHT22;41031;44.750;11.308;2023-04-01T08:24:42;17.40;66.30
55135;DHT22;41031;44.750;11.308;2023-04-01T08:27:37;17.40;67.50
55135;DHT22;41031;44.750;11.308;2023-04-01T08:30:21;17.40;65.60
55135;DHT22;41031;44.750;11.308;2023-04-01T08:32:58;17.40;63.90
55135;DHT22;41031;44.750;11.308;2023-04-01T08:36:08;17.40;63.10
55135;DHT22;41031;44.750;11.308;2023-04-01T08:38:38;17.50;63.90
55135;DHT22;41031;44.750;11.308;2023-04-01T08:47:00;17.70;61.70
55135;DHT22;41031;44.750;11.308;2023-04-01T08:52:44;17.70;62.70
55135;DHT22;41031;44.750;11.308;2023-04-01T09:04:50;18.00;62.80
55135;DHT22;41031;44.750;11.308;2023-04-01T09:10:55;18.30;61.40
55135;DHT22;41031;44.750;11.308;2023-04-01T09:25:57;19.60;60.60
55135;DHT22;41031;44.750;11.308;2023-04-01T09:28:13;19.80;60.00
55135;DHT22;41031;44.750;11.308;2023-04-01T09:33:54;20.20;57.80
55135;DHT22;41031;44.750;11.308;2023-04-01T09:36:50;20.30;55.60
55135;DHT22;41031;44.750;11.308;2023-04-01T09:48:21;20.80;55.30
55135;DHT22;41031;44.750;11.308;2023-04-01T09:51:01;20.90;54.10
55135;DHT22;41031;44.750;11.308;2023-04-01T10:02:43;21.20;54.10
55135;DHT22;41031;44.750;11.308;2023-04-01T10:14:29;21.50;51.50
55135;DHT22;41031;44.750;11.308;2023-04-01T10:23:22;21.80;52.30
55135;DHT22;41031;44.750;11.308;2023-04-01T10:26:32;21.90;52.60
55135;DHT22;41031;44.750;11.308;2023-04-01T11:40:45;22.70;38.70
55135;DHT22;41031;44.750;11.308;2023-04-01T11:43:47;22.50;37.60
55135;DHT22;41031;44.750;11.308;2023-04-01T11:49:59;22.60;41.00
55135;DHT22;41031;44.750;11.308;2023-04-01T11:56:02;23.00;39.90
55135;DHT22;41031;44.750;11.308;2023-04-01T12:04:58;23.30;39.50
55135;DHT22;41031;44.750;11.308;2023-04-01T12:10:20;23.30;39.20
55135;DHT22;41031;44.750;11.308;2023-04-01T12:12:59;23.30;39.40
55135;DHT22;41031;44.750;11.308;2023-04-01T12:18:26;23.50;41.40
55135;DHT22;41031;44.750;11.308;2023-04-01T12:21:21;23.50;39.90
55135;DHT22;41031;44.750;11.308;2023-04-01T12:41:12;23.00;37.70
55135;DHT22;41031;44.750;11.308;2023-04-01T12:52:13;22.70;40.30
55135;DHT22;41031;44.750;11.308;2023-04-01T12:58:07;22.90;37.40
55135;DHT22;41031;44.750;11.308;2023-04-01T13:16:25;23.10;38.40
55135;DHT22;41031;44.750;11.308;2023-04-01T13:18:59;23.10;37.40
55135;DHT22;41031;44.750;11.308;2023-04-01T13:21:46;23.00;38.20
55135;DHT22;41031;44.750;11.308;2023-04-01T13:27:51;22.80;36.70
55135;DHT22;41031;44.750;11.308;2023-04-01T13:36:13;22.80;39.50
55135;DHT22;41031;44.750;11.308;2023-04-01T13:38:27;22.80;38.70
55135;DHT22;41031;44.750;11.308;2023-04-01T13:44:18;22.70;39.20
55135;DHT22;41031;44.750;11.308;2023-04-01T13:55:10;22.50;39.80
55135;DHT22;41031;44.750;11.308;2023-04-01T14:00:46;22.50;42.30
55135;DHT22;41031;44.750;11.308;2023-04-01T14:03:30;22.60;40.30
55135;DHT22;41031;44.750;11.308;2023-04-01T14:06:13;22.50;39.80
55135;DHT22;41031;44.750;11.308;2023-04-01T14:11:56;22.50;40.70
55135;DHT22;41031;44.750;11.308;2023-04-01T14:17:31;22.60;39.80
55135;DHT22;41031;44.750;11.308;2023-04-01T14:28:26;22.80;37.90
55135;DHT22;41031;44.750;11.308;2023-04-01T14:33:51;22.70;39.10
55135;DHT22;41031;44.750;11.308;2023-04-01T14:50:55;22.60;38.80
55135;DHT22;41031;44.750;11.308;2023-04-01T14:53:35;22.50;39.10
55135;DHT22;41031;44.750;11.308;2023-04-01T14:56:05;22.50;40.30
55135;DHT22;41031;44.750;11.308;2023-04-01T14:58:47;22.50;39.90
55135;DHT22;41031;44.750;11.308;2023-04-01T15:33:55;21.90;29.60
55135;DHT22;41031;44.750;11.308;2023-04-01T15:39:54;21.80;29.70
55135;DHT22;41031;44.750;11.308;2023-04-01T15:45:08;21.70;31.60
55135;DHT22;41031;44.750;11.308;2023-04-01T15:47:58;21.70;31.30
55135;DHT22;41031;44.750;11.308;2023-04-01T15:51:01;21.60;32.70
55135;DHT22;41031;44.750;11.308;2023-04-01T16:01:59;21.40;31.70
55135;DHT22;41031;44.750;11.308;2023-04-01T16:05:02;21.40;31.50
55135;DHT22;41031;44.750;11.308;2023-04-01T16:12:55;21.20;34.80
55135;DHT22;41031;44.750;11.308;2023-04-01T16:18:31;21.10;32.90
55135;DHT22;41031;44.750;11.308;2023-04-01T16:23:56;21.00;34.40
55135;DHT22;41031;44.750;11.308;2023-04-01T16:26:35;21.00;34.40
55135;DHT22;41031;44.750;11.308;2023-04-01T16:29:11;20.90;34.30
55135;DHT22;41031;44.750;11.308;2023-04-01T16:34:43;20.90;31.60
55135;DHT22;41031;44.750;11.308;2023-04-01T16:37:20;20.80;31.50
55135;DHT22;41031;44.750;11.308;2023-04-01T16:42:43;20.70;32.30
55135;DHT22;41031;44.750;11.308;2023-04-01T16:45:23;20.70;33.50
55135;DHT22;41031;44.750;11.308;2023-04-01T16:51:09;20.70;33.70
55135;DHT22;41031;44.750;11.308;2023-04-01T16:53:43;20.70;33.60
55135;DHT22;41031;44.750;11.308;2023-04-01T16:56:23;20.60;35.20
55135;DHT22;41031;44.750;11.308;2023-04-01T17:01:53;20.50;35.70
55135;DHT22;41031;44.750;11.308;2023-04-01T17:04:57;20.40;35.20
55135;DHT22;41031;44.750;11.308;2023-04-01T17:12:42;20.30;34.70
55135;DHT22;41031;44.750;11.308;2023-04-01T17:20:46;20.20;34.60
55135;DHT22;41031;44.750;11.308;2023-04-01T17:26:37;20.00;33.90
55135;DHT22;41031;44.750;11.308;2023-04-01T17:29:24;20.00;34.50
55135;DHT22;41031;44.750;11.308;2023-04-01T18:19:50;17.80;49.30
55135;DHT22;41031;44.750;11.308;2023-04-01T18:22:42;17.70;49.80
55135;DHT22;41031;44.750;11.308;2023-04-01T18:28:04;17.50;50.30
55135;DHT22;41031;44.750;11.308;2023-04-01T18:30:33;17.40;50.60
55135;DHT22;41031;44.750;11.308;2023-04-01T18:33:23;17.30;50.80
55135;DHT22;41031;44.750;11.308;2023-04-01T18:39:41;17.10;51.40
55135;DHT22;41031;44.750;11.308;2023-04-01T18:42:31;17.10;51.60
55135;DHT22;41031;44.750;11.308;2023-04-01T18:51:35;16.80;52.50
55135;DHT22;41031;44.750;11.308;2023-04-01T18:54:19;16.70;52.80
55135;DHT22;41031;44.750;11.308;2023-04-01T18:56:49;16.70;53.00
55135;DHT22;41031;44.750;11.308;2023-04-01T19:00:11;16.60;53.10
55135;DHT22;41031;44.750;11.308;2023-04-01T19:05:09;16.50;53.60
55135;DHT22;41031;44.750;11.308;2023-04-01T19:08:13;16.40;53.80
55135;DHT22;41031;44.750;11.308;2023-04-01T19:16:20;16.20;54.40
55135;DHT22;41031;44.750;11.308;2023-04-01T19:24:16;16.10;55.40
55135;DHT22;41031;44.750;11.308;2023-04-01T19:29:57;15.90;56.00
55135;DHT22;41031;44.750;11.308;2023-04-01T19:46:44;15.50;56.90
55135;DHT22;41031;44.750;11.308;2023-04-01T20:03:21;15.10;58.10
55135;DHT22;41031;44.750;11.308;2023-04-01T20:06:22;15.00;58.40
55135;DHT22;41031;44.750;11.308;2023-04-01T20:09:58;15.00;58.90
55135;DHT22;41031;44.750;11.308;2023-04-01T20:12:00;14.90;59.00
55135;DHT22;41031;44.750;11.308;2023-04-01T20:14:53;14.90;59.20
55135;DHT22;41031;44.750;11.308;2023-04-01T20:17:41;14.80;59.40
55135;DHT22;41031;44.750;11.308;2023-04-01T20:25:47;14.70;59.80
55135;DHT22;41031;44.750;11.308;2023-04-01T20:30:57;14.60;60.10
55135;DHT22;41031;44.750;11.308;2023-04-01T20:51:06;14.40;61.70
55135;DHT22;41031;44.750;11.308;2023-04-01T20:53:43;14.40;61.80
55135;DHT22;41031;44.750;11.308;2023-04-01T20:58:54;14.30;62.10
55135;DHT22;41031;44.750;11.308;2023-04-01T21:04:36;14.30;62.60
55135;DHT22;41031;44.750;11.308;2023-04-01T21:07:27;14.20;62.80
55135;DHT22;41031;44.750;11.308;2023-04-01T21:27:42;14.20;63.30
55135;DHT22;41031;44.750;11.308;2023-04-01T21:33:15;14.20;63.50
55135;DHT22;41031;44.750;11.308;2023-04-01T21:50:35;14.20;63.70
55135;DHT22;41031;44.750;11.308;2023-04-01T21:53:36;14.20;63.70
55135;DHT22;41031;44.750;11.308;2023-04-01T22:02:47;14.20;63.50
55135;DHT22;41031;44.750;11.308;2023-04-01T22:05:09;14.20;63.70
55135;DHT22;41031;44.750;11.308;2023-04-01T22:07:46;14.20;64.00
55135;DHT22;41031;44.750;11.308;2023-04-01T22:10:41;14.20;64.20
55135;DHT22;41031;44.750;11.308;2023-04-01T22:21:23;14.10;65.30
55135;DHT22;41031;44.750;11.308;2023-04-01T22:26:44;14.10;65.50
55135;DHT22;41031;44.750;11.308;2023-04-01T22:29:26;14.00;65.70
55135;DHT22;41031;44.750;11.308;2023-04-01T22:32:14;14.00;65.90
55135;DHT22;41031;44.750;11.308;2023-04-01T22:43:47;13.90;66.20
55135;DHT22;41031;44.750;11.308;2023-04-01T22:48:51;13.80;66.50
55135;DHT22;41031;44.750;11.308;2023-04-01T22:51:26;13.80;66.70
55135;DHT22;41031;44.750;11.308;2023-04-01T22:56:36;13.70;66.90
55135;DHT22;41031;44.750;11.308;2023-04-01T22:59:19;13.70;67.00
55135;DHT22;41031;44.750;11.308;2023-04-01T23:02:03;13.70;67.10
55135;DHT22;41031;44.750;11.308;2023-04-01T23:04:37;13.70;66.90
55135;DHT22;41031;44.750;11.308;2023-04-01T23:07:24;13.60;66.80
55135;DHT22;41031;44.750;11.308;2023-04-01T23:09:57;13.60;66.70
55135;DHT22;41031;44.750;11.308;2023-04-01T23:12:25;13.50;66.50
55135;DHT22;41031;44.750;11.308;2023-04-01T23:14:59;13.50;67.30
55135;DHT22;41031;44.750;11.308;2023-04-01T23:17:46;13.40;67.40
55135;DHT22;41031;44.750;11.308;2023-04-01T23:23:24;13.10;68.90
55135;DHT22;41031;44.750;11.308;2023-04-01T23:26:19;13.10;69.60
55135;DHT22;41031;44.750;11.308;2023-04-01T23:28:48;13.00;69.90
55135;DHT22;41031;44.750;11.308;2023-04-01T23:31:35;13.00;70.30
55135;DHT22;41031;44.750;11.308;2023-04-01T23:34:52;13.00;70.40
55135;DHT22;41031;44.750;11.308;2023-04-01T23:37:12;13.00;70.20
55135;DHT22;41031;44.750;11.308;2023-04-01T23:39:44;13.00;70.40
55135;DHT22;41031;44.750;11.308;2023-04-01T23:44:56;12.90;70.50
55135;DHT22;41031;44.750;11.308;2023-04-01T23:47:33;12.90;70.50
55135;DHT22;41031;44.750;11.308;2023-04-01T23:50:20;12.90;70.80
55135;DHT22;41031;44.750;11.308;2023-04-01T23:53:04;12.90;71.10
55135;DHT22;41031;44.750;11.308;2023-04-01T23:55:32;13.00;71.60
